createdAt,value
2019-02-23T00:00:59.424Z,65.61
2019-02-23T00:01:59.383Z,65.71
2019-02-23T00:02:59.585Z,66.03
2019-02-23T00:04:00.032Z,66.03
2019-02-23T00:04:59.264Z,65.29
2019-02-23T00:05:59.224Z,65.08
2019-02-23T00:07:00.034Z,65.29
2019-02-23T00:07:59.211Z,65.29
2019-02-23T00:08:59.115Z,65.08
2019-02-23T00:10:00.221Z,64.84
2019-02-23T00:11:00.031Z,64.95
2019-02-23T00:11:59.003Z,65.61
2019-02-23T00:12:58.999Z,65.81
2019-02-23T00:13:58.924Z,65.71
2019-02-23T00:14:58.887Z,66.24
2019-02-23T00:15:59.542Z,66.13
2019-02-23T00:16:58.807Z,66.03
2019-02-23T00:17:58.792Z,66.03
2019-02-23T00:18:58.742Z,66.03
2019-02-23T00:19:58.695Z,65.71
2019-02-23T00:20:58.652Z,66.87
2019-02-23T00:21:58.615Z,66.76
2019-02-23T00:22:58.620Z,66.45
2019-02-23T00:23:59.466Z,66.97
2019-02-23T00:24:58.500Z,67.18
2019-02-23T00:25:58.462Z,67.18
2019-02-23T00:26:58.428Z,67.18
2019-02-23T00:27:58.396Z,66.76
2019-02-23T00:28:58.382Z,65.68
2019-02-23T00:29:58.375Z,65.26
2019-02-23T00:30:58.293Z,65.16
2019-02-23T00:31:58.237Z,65.86
2019-02-23T00:32:59.031Z,65.47
2019-02-23T00:33:58.179Z,65.47
2019-02-23T00:34:58.138Z,65.78
2019-02-23T00:35:58.090Z,65.16
2019-02-23T00:36:58.045Z,64.95
2019-02-23T00:37:58.003Z,65.05
2019-02-23T00:38:57.995Z,65.44
2019-02-23T00:39:58.534Z,64.60
2019-02-23T00:40:57.893Z,64.70
2019-02-23T00:41:57.853Z,64.81
2019-02-23T00:42:57.814Z,64.81
2019-02-23T00:43:57.800Z,64.95
2019-02-23T00:44:57.740Z,65.37
2019-02-23T00:45:57.704Z,65.86
2019-02-23T00:46:57.664Z,65.86
2019-02-23T00:47:58.537Z,65.12
2019-02-23T00:48:57.612Z,64.18
2019-02-23T00:49:57.551Z,64.29
2019-02-23T00:50:57.520Z,64.29
2019-02-23T00:51:57.473Z,63.97
2019-02-23T00:52:57.440Z,64.26
2019-02-23T00:53:57.422Z,64.36
2019-02-23T00:54:57.362Z,63.94
2019-02-23T00:55:57.321Z,63.84
2019-02-23T00:56:57.288Z,63.73
2019-02-23T00:57:57.253Z,63.42
2019-02-23T00:58:57.235Z,62.89
2019-02-23T00:59:57.173Z,62.79
2019-02-23T01:00:58.113Z,62.89
2019-02-23T01:01:57.116Z,62.79
2019-02-23T01:02:57.073Z,62.68
2019-02-23T01:03:57.055Z,62.79
2019-02-23T01:04:57.531Z,62.79
2019-02-23T01:05:56.949Z,62.99
2019-02-23T01:06:56.911Z,62.79
2019-02-23T01:07:56.880Z,62.89
2019-02-23T01:08:56.869Z,62.79
2019-02-23T01:09:56.795Z,62.68
2019-02-23T01:10:58.376Z,62.68
2019-02-23T01:11:56.728Z,62.58
2019-02-23T01:12:56.686Z,62.68
2019-02-23T01:13:57.071Z,62.99
2019-02-23T01:14:56.611Z,62.99
2019-02-23T01:15:58.482Z,62.79
2019-02-23T01:16:56.535Z,63.21
2019-02-23T01:17:57.036Z,63.55
2019-02-23T01:18:56.511Z,63.45
2019-02-23T01:19:56.417Z,63.42
2019-02-23T01:20:57.038Z,63.21
2019-02-23T01:21:56.344Z,63.10
2019-02-23T01:22:57.032Z,63.55
2019-02-23T01:23:57.036Z,63.87
2019-02-23T01:24:56.589Z,63.76
2019-02-23T01:25:56.191Z,64.07
2019-02-23T01:26:56.151Z,64.07
2019-02-23T01:27:56.117Z,63.76
2019-02-23T01:28:56.143Z,64.18
2019-02-23T01:29:56.061Z,63.87
2019-02-23T01:30:56.000Z,64.21
2019-02-23T01:31:55.960Z,64.21
2019-02-23T01:32:57.444Z,65.16
2019-02-23T01:33:55.888Z,64.84
2019-02-23T01:34:55.879Z,65.05
2019-02-23T01:35:55.809Z,64.84
2019-02-23T01:36:55.865Z,65.47
2019-02-23T01:37:56.530Z,65.50
2019-02-23T01:38:55.695Z,65.37
2019-02-23T01:39:55.689Z,64.98
2019-02-23T01:40:56.613Z,64.98
2019-02-23T01:41:55.581Z,65.50
2019-02-23T01:42:56.534Z,65.71
2019-02-23T01:43:56.037Z,65.61
2019-02-23T01:45:03.587Z,65.39
2019-02-23T01:45:55.428Z,65.81
2019-02-23T01:46:55.401Z,65.81
2019-02-23T01:47:55.406Z,65.81
2019-02-23T01:48:55.377Z,66.16
2019-02-23T01:49:58.972Z,66.69
2019-02-23T01:50:57.611Z,66.93
2019-02-23T01:51:58.652Z,67.03
2019-02-23T01:52:56.303Z,67.14
2019-02-23T01:53:56.081Z,67.35
2019-02-23T01:54:55.119Z,66.69
2019-02-23T01:55:55.054Z,66.90
2019-02-23T01:56:55.009Z,66.90
2019-02-23T01:57:54.972Z,67.14
2019-02-23T01:58:54.934Z,66.30
2019-02-23T01:59:54.988Z,65.84
2019-02-23T02:00:55.563Z,66.06
2019-02-23T02:01:54.823Z,65.74
2019-02-23T02:02:54.786Z,65.95
2019-02-23T02:03:55.568Z,65.74
2019-02-23T02:04:54.725Z,65.74
2019-02-23T02:05:54.665Z,66.16
2019-02-23T02:06:54.644Z,66.48
2019-02-23T02:07:54.761Z,66.72
2019-02-23T02:08:56.482Z,67.24
2019-02-23T02:09:54.537Z,67.24
2019-02-23T02:10:54.491Z,67.88
2019-02-23T02:11:54.443Z,67.66
2019-02-23T02:12:55.989Z,67.46
2019-02-23T02:13:55.980Z,67.66
2019-02-23T02:14:57.250Z,68.08
2019-02-23T02:15:55.085Z,67.69
2019-02-23T02:16:54.405Z,67.14
2019-02-23T02:18:55.970Z,66.93
2019-02-23T02:19:55.756Z,66.58
2019-02-23T02:20:56.638Z,66.58
2019-02-23T02:21:56.641Z,66.48
2019-02-23T02:22:55.093Z,66.58
2019-02-23T02:23:57.046Z,67.24
2019-02-23T02:24:54.755Z,67.88
2019-02-23T02:25:55.527Z,67.24
2019-02-23T02:26:54.046Z,67.46
2019-02-23T02:27:56.470Z,67.56
2019-02-23T02:28:55.971Z,67.35
2019-02-23T02:29:53.768Z,67.56
2019-02-23T02:30:54.571Z,67.56
2019-02-23T02:31:53.671Z,68.01
2019-02-23T02:32:53.636Z,68.54
2019-02-23T02:33:53.645Z,68.65
2019-02-23T02:34:53.592Z,69.27
2019-02-23T02:35:53.652Z,69.41
2019-02-23T02:36:53.474Z,69.70
2019-02-23T02:37:53.433Z,69.27
2019-02-23T02:38:53.397Z,69.17
2019-02-23T02:39:53.357Z,69.62
2019-02-23T02:40:53.345Z,70.04
2019-02-23T02:41:53.279Z,70.15
2019-02-23T02:42:53.241Z,70.36
2019-02-23T02:43:53.224Z,69.83
2019-02-23T02:44:53.163Z,70.15
2019-02-23T02:45:53.604Z,70.47
2019-02-23T02:46:53.087Z,70.15
2019-02-23T02:47:53.049Z,70.47
2019-02-23T02:48:53.010Z,70.36
2019-02-23T02:49:52.978Z,70.04
2019-02-23T02:50:52.962Z,69.80
2019-02-23T02:51:52.899Z,69.27
2019-02-23T02:52:52.857Z,69.38
2019-02-23T02:53:53.563Z,68.96
2019-02-23T02:54:52.779Z,68.75
2019-02-23T02:55:52.777Z,68.65
2019-02-23T02:56:52.704Z,68.51
2019-02-23T02:57:53.563Z,68.51
2019-02-23T02:58:53.566Z,68.51
2019-02-23T02:59:53.577Z,68.30
2019-02-23T03:00:52.597Z,68.08
2019-02-23T03:01:52.513Z,68.19
2019-02-23T03:02:52.487Z,68.40
2019-02-23T03:03:52.439Z,69.03
2019-02-23T03:04:52.397Z,68.51
2019-02-23T03:05:52.380Z,68.93
2019-02-23T03:06:52.314Z,68.72
2019-02-23T03:07:52.274Z,69.24
2019-02-23T03:08:52.240Z,69.67
2019-02-23T03:09:52.203Z,68.96
2019-02-23T03:10:52.185Z,68.40
2019-02-23T03:11:52.132Z,68.51
2019-02-23T03:12:52.081Z,68.82
2019-02-23T03:13:52.565Z,69.17
2019-02-23T03:14:52.008Z,68.61
2019-02-23T03:15:52.100Z,69.27
2019-02-23T03:16:51.928Z,68.75
2019-02-23T03:17:51.894Z,68.51
2019-02-23T03:18:51.852Z,69.07
2019-02-23T03:19:51.817Z,68.30
2019-02-23T03:20:51.796Z,68.61
2019-02-23T03:21:51.739Z,69.14
2019-02-23T03:22:51.697Z,69.07
2019-02-23T03:23:51.663Z,69.59
2019-02-23T03:24:52.572Z,69.49
2019-02-23T03:25:52.103Z,70.25
2019-02-23T03:26:51.545Z,70.54
2019-02-23T03:27:51.503Z,70.36
2019-02-23T03:28:51.462Z,70.47
2019-02-23T03:29:51.428Z,71.10
2019-02-23T03:30:51.460Z,70.89
2019-02-23T03:31:51.366Z,70.99
2019-02-23T03:32:51.321Z,71.20
2019-02-23T03:33:52.075Z,70.89
2019-02-23T03:34:52.068Z,71.31
2019-02-23T03:35:51.233Z,71.41
2019-02-23T03:36:51.197Z,71.20
2019-02-23T03:37:51.122Z,70.57
2019-02-23T03:38:51.081Z,70.78
2019-02-23T03:39:51.573Z,69.62
2019-02-23T03:40:51.080Z,70.01
2019-02-23T03:41:50.980Z,70.01
2019-02-23T03:42:51.564Z,70.25
2019-02-23T03:43:51.566Z,70.22
2019-02-23T03:44:51.618Z,69.80
2019-02-23T03:45:51.568Z,69.80
2019-02-23T03:46:50.793Z,70.22
2019-02-23T03:47:50.737Z,69.59
2019-02-23T03:48:51.599Z,69.17
2019-02-23T03:49:50.655Z,69.49
2019-02-23T03:50:50.634Z,68.75
2019-02-23T03:51:50.609Z,69.27
2019-02-23T03:52:51.073Z,69.80
2019-02-23T03:53:50.503Z,69.49
2019-02-23T03:54:50.472Z,69.07
2019-02-23T03:55:50.430Z,69.56
2019-02-23T03:56:50.407Z,69.45
2019-02-23T03:57:50.342Z,69.17
2019-02-23T03:58:50.313Z,69.49
2019-02-23T03:59:50.269Z,69.49
2019-02-23T04:00:50.229Z,69.59
2019-02-23T04:01:50.238Z,70.12
2019-02-23T04:02:50.156Z,70.01
2019-02-23T04:03:50.112Z,69.80
2019-02-23T04:04:50.079Z,69.91
2019-02-23T04:05:50.568Z,69.91
2019-02-23T04:06:50.021Z,70.01
2019-02-23T04:07:49.959Z,69.98
2019-02-23T04:08:50.567Z,69.67
2019-02-23T04:09:49.882Z,69.45
2019-02-23T04:10:49.847Z,69.14
2019-02-23T04:11:49.839Z,69.14
2019-02-23T04:12:50.568Z,69.14
2019-02-23T04:13:49.733Z,68.69
2019-02-23T04:14:49.690Z,69.64
2019-02-23T04:15:49.675Z,69.21
2019-02-23T04:16:49.646Z,69.00
2019-02-23T04:17:49.713Z,68.48
2019-02-23T04:18:49.550Z,68.16
2019-02-23T04:19:50.070Z,67.92
2019-02-23T04:21:00.965Z,67.95
2019-02-23T04:21:49.450Z,68.34
2019-02-23T04:22:50.133Z,67.60
2019-02-23T04:23:49.357Z,67.60
2019-02-23T04:24:49.310Z,67.68
2019-02-23T04:25:49.275Z,67.50
2019-02-23T04:26:49.255Z,67.57
2019-02-23T04:27:49.199Z,67.57
2019-02-23T04:28:49.167Z,67.36
2019-02-23T04:29:49.211Z,67.68
2019-02-23T04:30:50.064Z,67.47
2019-02-23T04:31:49.063Z,67.12
2019-02-23T04:32:49.004Z,67.05
2019-02-23T04:33:48.973Z,66.91
2019-02-23T04:34:49.034Z,65.76
2019-02-23T04:35:48.892Z,66.10
2019-02-23T04:36:48.880Z,66.91
2019-02-23T04:37:48.814Z,66.60
2019-02-23T04:38:48.776Z,66.60
2019-02-23T04:39:49.566Z,65.65
2019-02-23T04:40:48.700Z,66.07
2019-02-23T04:41:48.693Z,65.86
2019-02-23T04:42:48.624Z,66.07
2019-02-23T04:43:48.623Z,65.34
2019-02-23T04:44:48.565Z,65.65
2019-02-23T04:45:48.514Z,65.68
2019-02-23T04:46:48.500Z,64.92
2019-02-23T04:47:48.438Z,65.12
2019-02-23T04:48:48.400Z,64.81
2019-02-23T04:49:49.069Z,65.12
2019-02-23T04:50:48.328Z,64.70
2019-02-23T04:51:48.309Z,65.23
2019-02-23T04:52:48.250Z,65.76
2019-02-23T04:53:48.212Z,65.58
2019-02-23T04:54:49.068Z,66.10
2019-02-23T04:55:48.137Z,65.78
2019-02-23T04:56:48.144Z,66.10
2019-02-23T04:57:48.115Z,65.78
2019-02-23T04:58:48.024Z,65.68
2019-02-23T04:59:47.988Z,67.05
2019-02-23T05:00:48.006Z,67.18
2019-02-23T05:01:47.922Z,67.26
2019-02-23T05:02:47.901Z,67.36
2019-02-23T05:03:48.572Z,67.50
2019-02-23T05:04:47.806Z,67.71
2019-02-23T05:05:47.765Z,67.50
2019-02-23T05:06:47.726Z,67.53
2019-02-23T05:07:47.722Z,67.85
2019-02-23T05:08:47.648Z,67.63
2019-02-23T05:09:47.634Z,68.27
2019-02-23T05:10:47.585Z,68.08
2019-02-23T05:11:47.543Z,68.19
2019-02-23T05:12:47.523Z,67.98
2019-02-23T05:13:47.463Z,68.30
2019-02-23T05:14:47.423Z,68.40
2019-02-23T05:15:47.385Z,68.40
2019-02-23T05:16:47.347Z,68.61
2019-02-23T05:17:47.602Z,69.35
2019-02-23T05:18:48.072Z,69.14
2019-02-23T05:19:47.238Z,69.80
2019-02-23T05:20:47.197Z,69.49
2019-02-23T05:21:48.074Z,69.91
2019-02-23T05:22:47.600Z,69.91
2019-02-23T05:23:47.083Z,70.64
2019-02-23T05:24:47.043Z,70.33
2019-02-23T05:25:47.572Z,70.33
2019-02-23T05:26:46.965Z,70.54
2019-02-23T05:27:46.951Z,70.01
2019-02-23T05:28:46.893Z,69.38
2019-02-23T05:29:46.857Z,69.49
2019-02-23T05:30:46.816Z,69.49
2019-02-23T05:31:46.779Z,69.49
2019-02-23T05:32:47.113Z,69.49
2019-02-23T05:33:46.702Z,70.01
2019-02-23T05:34:46.673Z,70.12
2019-02-23T05:35:46.623Z,70.01
2019-02-23T05:36:46.588Z,70.57
2019-02-23T05:37:46.571Z,70.57
2019-02-23T05:38:46.514Z,70.57
2019-02-23T05:39:46.476Z,70.99
2019-02-23T05:40:46.432Z,70.47
2019-02-23T05:41:46.401Z,70.36
2019-02-23T05:42:46.624Z,70.47
2019-02-23T05:43:46.320Z,70.67
2019-02-23T05:44:47.071Z,70.78
2019-02-23T05:45:46.255Z,70.57
2019-02-23T05:46:46.207Z,70.04
2019-02-23T05:47:46.187Z,70.36
2019-02-23T05:48:46.128Z,70.15
2019-02-23T05:49:46.085Z,70.78
2019-02-23T05:50:46.049Z,70.47
2019-02-23T05:51:46.007Z,70.67
2019-02-23T05:52:45.997Z,70.47
2019-02-23T05:53:45.934Z,71.03
2019-02-23T05:54:45.898Z,70.81
2019-02-23T05:55:45.852Z,71.13
2019-02-23T05:56:45.817Z,70.81
2019-02-23T05:57:45.816Z,71.03
2019-02-23T05:58:45.738Z,70.81
2019-02-23T05:59:45.718Z,71.03
2019-02-23T06:00:45.670Z,71.13
2019-02-23T06:01:45.630Z,71.34
2019-02-23T06:02:45.608Z,71.45
2019-02-23T06:03:45.545Z,71.34
2019-02-23T06:04:45.520Z,71.03
2019-02-23T06:05:45.470Z,71.34
2019-02-23T06:06:45.432Z,71.45
2019-02-23T06:07:45.420Z,71.23
2019-02-23T06:08:45.436Z,71.45
2019-02-23T06:09:46.068Z,71.26
2019-02-23T06:10:45.279Z,70.92
2019-02-23T06:11:45.239Z,71.37
2019-02-23T06:12:45.224Z,71.26
2019-02-23T06:13:45.159Z,71.55
2019-02-23T06:14:45.123Z,71.06
2019-02-23T06:15:45.084Z,71.03
2019-02-23T06:16:45.042Z,70.81
2019-02-23T06:17:45.031Z,71.03
2019-02-23T06:18:44.979Z,70.92
2019-02-23T06:19:44.927Z,71.13
2019-02-23T06:20:44.893Z,71.03
2019-02-23T06:21:53.594Z,70.81
2019-02-23T06:22:46.745Z,70.92
2019-02-23T06:23:44.804Z,70.99
2019-02-23T06:24:44.736Z,70.81
2019-02-23T06:25:44.700Z,71.23
2019-02-23T06:26:44.667Z,71.34
2019-02-23T06:27:44.636Z,71.23
2019-02-23T06:28:44.605Z,71.34
2019-02-23T06:29:44.545Z,70.78
2019-02-23T06:30:44.504Z,70.67
2019-02-23T06:31:44.462Z,70.78
2019-02-23T06:32:44.476Z,70.67
2019-02-23T06:33:44.415Z,70.67
2019-02-23T06:34:44.348Z,70.47
2019-02-23T06:35:44.322Z,70.15
2019-02-23T06:36:44.278Z,69.70
2019-02-23T06:37:44.248Z,69.62
2019-02-23T06:38:44.247Z,69.07
2019-02-23T06:39:44.153Z,69.80
2019-02-23T06:40:44.117Z,69.27
2019-02-23T06:41:44.166Z,68.96
2019-02-23T06:42:44.038Z,68.96
2019-02-23T06:43:44.053Z,69.38
2019-02-23T06:44:43.972Z,68.75
2019-02-23T06:45:43.926Z,68.12
2019-02-23T06:46:43.896Z,68.30
2019-02-23T06:47:43.845Z,68.23
2019-02-23T06:48:43.829Z,67.88
2019-02-23T06:49:43.770Z,67.98
2019-02-23T06:50:43.737Z,67.88
2019-02-23T06:51:43.721Z,67.98
2019-02-23T06:52:43.661Z,67.98
2019-02-23T06:53:43.653Z,67.98
2019-02-23T06:54:43.577Z,67.98
2019-02-23T06:55:43.539Z,67.88
2019-02-23T06:56:43.498Z,68.51
2019-02-23T06:57:43.485Z,67.88
2019-02-23T06:58:43.448Z,68.08
2019-02-23T06:59:43.415Z,68.30
2019-02-23T07:00:43.348Z,67.77
2019-02-23T07:01:43.308Z,68.27
2019-02-23T07:02:43.273Z,68.37
2019-02-23T07:03:43.275Z,67.63
2019-02-23T07:04:43.242Z,67.74
2019-02-23T07:05:43.153Z,67.40
2019-02-23T07:06:43.117Z,67.21
2019-02-23T07:07:43.137Z,67.21
2019-02-23T07:08:43.087Z,67.00
2019-02-23T07:09:43.046Z,67.11
2019-02-23T07:10:42.964Z,67.40
2019-02-23T07:11:42.922Z,67.08
2019-02-23T07:12:42.890Z,66.66
2019-02-23T07:13:42.846Z,66.66
2019-02-23T07:14:43.126Z,66.66
2019-02-23T07:15:42.795Z,65.81
2019-02-23T07:16:42.735Z,66.45
2019-02-23T07:17:42.698Z,65.61
2019-02-23T07:18:42.691Z,65.71
2019-02-23T07:19:43.575Z,65.81
2019-02-23T07:20:44.459Z,66.24
2019-02-23T07:21:42.551Z,66.00
2019-02-23T07:22:42.508Z,66.10
2019-02-23T07:23:42.492Z,65.89
2019-02-23T07:24:42.431Z,65.89
2019-02-23T07:25:42.389Z,65.68
2019-02-23T07:26:42.351Z,66.20
2019-02-23T07:27:42.312Z,65.89
2019-02-23T07:28:42.342Z,65.58
2019-02-23T07:29:42.238Z,65.05
2019-02-23T07:30:42.198Z,64.95
2019-02-23T07:31:42.170Z,64.81
2019-02-23T07:32:42.142Z,64.50
2019-02-23T07:33:42.092Z,64.50
2019-02-23T07:34:42.074Z,64.29
2019-02-23T07:35:42.011Z,64.15
2019-02-23T07:36:42.571Z,64.60
2019-02-23T07:37:41.948Z,63.97
2019-02-23T07:38:41.911Z,64.18
2019-02-23T07:39:41.883Z,63.76
2019-02-23T07:40:41.837Z,63.76
2019-02-23T07:41:41.786Z,63.73
2019-02-23T07:42:41.747Z,63.97
2019-02-23T07:43:41.777Z,63.84
2019-02-23T07:44:42.140Z,64.04
2019-02-23T07:45:51.106Z,63.73
2019-02-23T07:46:41.595Z,63.52
2019-02-23T07:47:41.577Z,63.21
2019-02-23T07:48:41.523Z,63.21
2019-02-23T07:49:41.509Z,63.63
2019-02-23T07:50:41.450Z,63.31
2019-02-23T07:51:41.496Z,63.31
2019-02-23T07:52:42.112Z,63.31
2019-02-23T07:53:41.334Z,63.10
2019-02-23T07:54:41.317Z,62.68
2019-02-23T07:55:41.269Z,62.68
2019-02-23T07:56:41.244Z,62.89
2019-02-23T07:57:41.183Z,64.12
2019-02-23T07:58:42.098Z,62.65
2019-02-23T07:59:41.130Z,62.76
2019-02-23T08:00:41.597Z,62.65
2019-02-23T08:01:41.030Z,62.45
2019-02-23T08:02:40.990Z,62.86
2019-02-23T08:03:40.962Z,63.15
2019-02-23T08:04:40.958Z,62.65
2019-02-23T08:05:40.886Z,62.62
2019-02-23T08:06:40.851Z,62.62
2019-02-23T08:07:40.819Z,62.73
2019-02-23T08:08:40.821Z,62.52
2019-02-23T08:09:40.758Z,62.49
2019-02-23T08:10:40.703Z,62.07
2019-02-23T08:11:40.705Z,62.18
2019-02-23T08:12:40.630Z,62.28
2019-02-23T08:13:40.851Z,62.28
2019-02-23T08:14:40.952Z,61.65
2019-02-23T08:15:40.518Z,61.31
2019-02-23T08:16:40.469Z,61.34
2019-02-23T08:17:40.439Z,59.97
2019-02-23T08:18:41.105Z,60.58
2019-02-23T08:19:40.380Z,61.31
2019-02-23T08:20:40.350Z,60.37
2019-02-23T08:21:40.281Z,59.84
2019-02-23T08:22:40.243Z,59.42
2019-02-23T08:23:41.099Z,60.26
2019-02-23T08:24:40.195Z,60.58
2019-02-23T08:25:40.160Z,59.84
2019-02-23T08:26:40.098Z,60.13
2019-02-23T08:27:40.604Z,60.13
2019-02-23T08:28:40.037Z,59.81
2019-02-23T08:29:40.131Z,60.24
2019-02-23T08:30:40.594Z,60.13
2019-02-23T08:31:39.936Z,59.58
2019-02-23T08:32:39.880Z,59.47
2019-02-23T08:33:39.835Z,58.77
2019-02-23T08:34:39.839Z,58.98
2019-02-23T08:35:40.503Z,60.10
2019-02-23T08:36:39.725Z,58.43
2019-02-23T08:37:39.700Z,57.59
2019-02-23T08:38:39.662Z,57.38
2019-02-23T08:39:39.663Z,56.73
2019-02-23T08:40:39.574Z,56.10
2019-02-23T08:41:39.539Z,56.73
2019-02-23T08:42:40.097Z,56.52
2019-02-23T08:43:39.467Z,56.49
2019-02-23T08:44:39.453Z,56.38
2019-02-23T08:45:39.487Z,56.28
2019-02-23T08:46:42.099Z,56.28
2019-02-23T08:47:39.323Z,55.24
2019-02-23T08:48:39.284Z,55.76
2019-02-23T08:49:39.245Z,55.87
2019-02-23T08:50:39.232Z,55.10
2019-02-23T08:51:40.106Z,54.29
2019-02-23T08:52:48.650Z,54.19
2019-02-23T08:53:39.099Z,53.45
2019-02-23T08:54:39.065Z,52.91
2019-02-23T08:55:39.130Z,53.22
2019-02-23T08:56:38.999Z,52.91
2019-02-23T08:57:38.967Z,53.12
2019-02-23T08:58:38.945Z,53.33
2019-02-23T08:59:38.881Z,53.35
2019-02-23T09:00:39.134Z,53.02
2019-02-23T09:01:38.817Z,53.43
2019-02-23T09:02:39.628Z,53.72
2019-02-23T09:03:38.732Z,53.83
2019-02-23T09:04:38.698Z,53.62
2019-02-23T09:05:44.505Z,53.93
2019-02-23T09:06:38.629Z,54.14
2019-02-23T09:07:38.591Z,52.99
2019-02-23T09:08:39.100Z,53.70
2019-02-23T09:09:38.528Z,53.38
2019-02-23T09:10:38.723Z,53.07
2019-02-23T09:11:38.463Z,52.55
2019-02-23T09:12:38.414Z,52.44
2019-02-23T09:13:39.508Z,52.76
2019-02-23T09:14:38.342Z,52.11
2019-02-23T09:15:38.632Z,52.03
2019-02-23T09:16:38.297Z,51.72
2019-02-23T09:17:39.107Z,52.42
2019-02-23T09:18:38.254Z,52.11
2019-02-23T09:19:45.005Z,51.87
2019-02-23T09:20:39.135Z,51.46
2019-02-23T09:21:39.006Z,51.35
2019-02-23T09:22:40.010Z,51.56
2019-02-23T09:23:39.006Z,51.04
2019-02-23T09:24:38.013Z,51.04
2019-02-23T09:25:38.506Z,51.56
2019-02-23T09:26:37.916Z,50.81
2019-02-23T09:27:37.875Z,50.91
2019-02-23T09:28:38.603Z,51.01
2019-02-23T09:29:37.847Z,50.08
2019-02-23T09:30:38.234Z,50.08
2019-02-23T09:31:37.734Z,50.70
2019-02-23T09:32:40.508Z,50.39
2019-02-23T09:33:37.657Z,50.31
2019-02-23T09:34:38.614Z,50.83
2019-02-23T09:35:37.623Z,51.12
2019-02-23T09:36:37.554Z,50.99
2019-02-23T09:37:38.146Z,51.64
2019-02-23T09:38:37.486Z,50.91
2019-02-23T09:39:39.009Z,50.18
2019-02-23T09:40:37.434Z,50.39
2019-02-23T09:41:37.371Z,49.97
2019-02-23T09:42:38.140Z,50.39
2019-02-23T09:43:38.304Z,50.70
2019-02-23T09:44:37.275Z,50.49
2019-02-23T09:45:37.660Z,51.12
2019-02-23T09:46:37.199Z,50.16
2019-02-23T09:47:37.160Z,49.85
2019-02-23T09:48:37.126Z,50.57
2019-02-23T09:49:37.095Z,50.57
2019-02-23T09:50:37.092Z,51.41
2019-02-23T09:51:38.513Z,51.51
2019-02-23T09:52:36.991Z,51.18
2019-02-23T09:53:36.953Z,50.24
2019-02-23T09:54:37.620Z,50.65
2019-02-23T09:55:36.907Z,48.78
2019-02-23T09:56:37.602Z,48.68
2019-02-23T09:57:36.807Z,48.99
2019-02-23T09:58:36.772Z,48.36
2019-02-23T09:59:40.038Z,48.68
2019-02-23T10:00:36.731Z,49.41
2019-02-23T10:01:36.666Z,48.78
2019-02-23T10:02:37.611Z,49.09
2019-02-23T10:03:36.633Z,49.30
2019-02-23T10:04:37.104Z,48.75
2019-02-23T10:05:38.228Z,49.41
2019-02-23T10:06:36.534Z,48.88
2019-02-23T10:07:36.455Z,49.69
2019-02-23T10:08:36.424Z,49.49
2019-02-23T10:09:36.382Z,48.75
2019-02-23T10:10:36.349Z,48.55
2019-02-23T10:11:36.343Z,48.03
2019-02-23T10:12:39.104Z,46.57
2019-02-23T10:13:36.275Z,46.36
2019-02-23T10:14:36.210Z,46.28
2019-02-23T10:15:36.171Z,46.91
2019-02-23T10:16:36.162Z,47.84
2019-02-23T10:17:36.128Z,47.94
2019-02-23T10:18:36.075Z,47.82
2019-02-23T10:19:36.032Z,48.13
2019-02-23T10:20:36.001Z,48.55
2019-02-23T10:21:35.993Z,48.13
2019-02-23T10:22:35.929Z,49.07
2019-02-23T10:23:35.897Z,49.28
2019-02-23T10:24:35.898Z,48.84
2019-02-23T10:25:35.823Z,48.32
2019-02-23T10:26:35.811Z,48.43
2019-02-23T10:27:35.751Z,48.84
2019-02-23T10:28:36.511Z,48.92
2019-02-23T10:29:35.681Z,48.50
2019-02-23T10:30:35.648Z,48.50
2019-02-23T10:31:35.682Z,48.50
2019-02-23T10:32:35.583Z,48.50
2019-02-23T10:33:38.457Z,47.78
2019-02-23T10:34:35.515Z,48.17
2019-02-23T10:35:35.484Z,48.27
2019-02-23T10:36:35.481Z,48.07
2019-02-23T10:37:35.411Z,47.34
2019-02-23T10:38:35.370Z,48.27
2019-02-23T10:39:35.422Z,47.75
2019-02-23T10:40:36.136Z,47.75
2019-02-23T10:41:35.305Z,47.65
2019-02-23T10:42:35.235Z,47.65
2019-02-23T10:43:35.193Z,47.75
2019-02-23T10:44:36.114Z,48.07
2019-02-23T10:45:36.112Z,48.46
2019-02-23T10:46:35.121Z,47.94
2019-02-23T10:47:35.053Z,47.73
2019-02-23T10:48:35.025Z,46.90
2019-02-23T10:49:35.050Z,46.59
2019-02-23T10:50:34.949Z,46.17
2019-02-23T10:51:34.958Z,46.17
2019-02-23T10:52:34.890Z,46.59
2019-02-23T10:53:35.607Z,45.65
2019-02-23T10:54:34.815Z,45.13
2019-02-23T10:55:34.773Z,46.59
2019-02-23T10:56:34.765Z,45.42
2019-02-23T10:57:34.705Z,46.15
2019-02-23T10:58:35.610Z,45.73
2019-02-23T10:59:35.608Z,45.63
2019-02-23T11:00:35.114Z,44.47
2019-02-23T11:01:34.643Z,45.40
2019-02-23T11:02:34.532Z,45.61
2019-02-23T11:03:34.494Z,44.68
2019-02-23T11:04:34.462Z,44.99
2019-02-23T11:05:34.572Z,45.40
2019-02-23T11:06:34.418Z,43.43
2019-02-23T11:07:34.356Z,42.61
2019-02-23T11:08:35.111Z,42.91
2019-02-23T11:09:35.110Z,42.91
2019-02-23T11:10:34.253Z,42.91
2019-02-23T11:11:34.240Z,42.60
2019-02-23T11:12:34.185Z,42.91
2019-02-23T11:13:34.207Z,42.60
2019-02-23T11:14:34.172Z,42.91
2019-02-23T11:15:34.082Z,42.39
2019-02-23T11:16:34.053Z,42.60
2019-02-23T11:17:34.051Z,43.01
2019-02-23T11:18:34.012Z,43.84
2019-02-23T11:19:33.943Z,44.89
2019-02-23T11:20:33.911Z,44.24
2019-02-23T11:21:34.612Z,44.13
2019-02-23T11:22:33.868Z,44.65
2019-02-23T11:23:43.488Z,44.24
2019-02-23T11:24:33.776Z,44.53
2019-02-23T11:25:33.742Z,43.82
2019-02-23T11:26:34.619Z,44.65
2019-02-23T11:27:33.694Z,44.24
2019-02-23T11:28:33.717Z,43.08
2019-02-23T11:29:33.601Z,42.99
2019-02-23T11:30:33.584Z,43.20
2019-02-23T11:31:33.535Z,42.89
2019-02-23T11:32:33.534Z,42.97
2019-02-23T11:33:33.471Z,42.77
2019-02-23T11:34:33.430Z,43.18
2019-02-23T11:35:33.401Z,44.12
2019-02-23T11:36:33.364Z,43.08
2019-02-23T11:37:33.359Z,42.77
2019-02-23T11:38:33.295Z,42.87
2019-02-23T11:39:33.262Z,42.65
2019-02-23T11:40:33.231Z,42.87
2019-02-23T11:41:33.196Z,42.85
2019-02-23T11:42:33.195Z,42.23
2019-02-23T11:43:33.126Z,42.54
2019-02-23T11:44:33.091Z,42.56
2019-02-23T11:45:33.060Z,42.66
2019-02-23T11:46:33.111Z,42.33
2019-02-23T11:47:33.026Z,42.56
2019-02-23T11:48:32.957Z,42.65
2019-02-23T11:49:32.922Z,41.71
2019-02-23T11:50:32.892Z,41.40
2019-02-23T11:51:32.855Z,40.03
2019-02-23T11:52:32.847Z,39.95
2019-02-23T11:53:32.783Z,40.67
2019-02-23T11:54:32.751Z,39.83
2019-02-23T11:55:32.715Z,40.13
2019-02-23T11:56:32.687Z,40.55
2019-02-23T11:57:32.677Z,40.65
2019-02-23T11:58:32.618Z,39.83
2019-02-23T11:59:32.590Z,39.92
2019-02-23T12:00:32.549Z,40.86
2019-02-23T12:01:32.525Z,40.65
2019-02-23T12:02:32.506Z,40.23
2019-02-23T12:03:32.485Z,41.38
2019-02-23T12:04:32.416Z,41.15
2019-02-23T12:05:32.382Z,41.58
2019-02-23T12:06:32.346Z,42.31
2019-02-23T12:07:32.374Z,41.77
2019-02-23T12:08:32.277Z,40.84
2019-02-23T12:09:32.239Z,40.84
2019-02-23T12:10:34.021Z,40.94
2019-02-23T12:11:32.172Z,41.34
2019-02-23T12:12:32.203Z,40.82
2019-02-23T12:13:32.106Z,40.41
2019-02-23T12:14:32.079Z,40.51
2019-02-23T12:15:32.042Z,40.09
2019-02-23T12:16:32.002Z,40.22
2019-02-23T12:17:31.997Z,39.79
2019-02-23T12:18:31.940Z,40.20
2019-02-23T12:19:31.952Z,39.79
2019-02-23T12:20:31.918Z,40.09
2019-02-23T12:21:31.843Z,40.28
2019-02-23T12:22:31.832Z,40.28
2019-02-23T12:23:31.778Z,39.97
2019-02-23T12:24:31.738Z,40.39
2019-02-23T12:25:31.706Z,40.78
2019-02-23T12:26:31.706Z,40.06
2019-02-23T12:27:31.649Z,39.03
2019-02-23T12:28:31.632Z,38.82
2019-02-23T12:29:31.571Z,38.90
2019-02-23T12:30:32.838Z,39.23
2019-02-23T12:31:31.500Z,38.90
2019-02-23T12:32:31.496Z,38.39
2019-02-23T12:33:31.651Z,38.26
2019-02-23T12:34:31.405Z,38.16
2019-02-23T12:35:31.368Z,38.06
2019-02-23T12:36:31.334Z,38.57
2019-02-23T12:37:31.299Z,38.24
2019-02-23T12:38:31.299Z,38.24
2019-02-23T12:39:31.266Z,38.06
2019-02-23T12:40:31.211Z,37.94
2019-02-23T12:41:31.171Z,38.56
2019-02-23T12:42:31.165Z,36.68
2019-02-23T12:43:31.126Z,35.96
2019-02-23T12:44:31.070Z,35.13
2019-02-23T12:45:31.036Z,34.11
2019-02-23T12:46:31.618Z,33.99
2019-02-23T12:47:35.527Z,34.41
2019-02-23T12:48:31.155Z,34.51
2019-02-23T12:49:30.908Z,35.54
2019-02-23T12:50:33.356Z,35.22
2019-02-23T12:51:30.840Z,35.32
2019-02-23T12:52:31.620Z,35.32
2019-02-23T12:53:30.804Z,36.04